Time;durP1;ratioP1;P1;durP2;ratioP2;P2;SDS_P1;SDS_P2;PMS_P1;PMS_P2;Temp;Humidity;BMP_temperature;BMP_pressure;BME280_temperature;BME280_humidity;BME280_pressure;Samples;Min_cycle;Max_cycle;Signal;HPM_P1;HPM_P2
2022/08/04 00:00:55;;;;;;;1.42;0.77;;;26.20;66.90;;;;;;5096990;28;20043;-75
2022/08/04 00:03:31;;;;;;;0.85;0.60;;;26.20;66.90;;;;;;5115160;28;20506;-77
2022/08/04 00:06:08;;;;;;;1.27;1.00;;;26.20;66.70;;;;;;5115012;28;20443;-76
2022/08/04 00:08:44;;;;;;;1.00;0.57;;;26.30;66.50;;;;;;5114998;28;20134;-75
2022/08/04 00:11:14;;;;;;;0.73;0.63;;;26.20;66.70;;;;;;5097050;28;20534;-78
2022/08/04 00:13:44;;;;;;;1.50;0.73;;;26.20;66.90;;;;;;5114775;28;20047;-75
2022/08/04 00:16:12;;;;;;;1.63;0.77;;;26.40;66.60;;;;;;5114957;28;20055;-77
2022/08/04 00:18:49;;;;;;;1.40;0.82;;;26.40;66.70;;;;;;5096654;28;20052;-77
2022/08/04 00:21:17;;;;;;;2.17;0.75;;;26.40;66.50;;;;;;5114656;28;20043;-77
2022/08/04 00:23:44;;;;;;;1.65;1.00;;;26.40;66.50;;;;;;5096460;28;20032;-76
2022/08/04 00:26:10;;;;;;;1.05;0.73;;;26.40;66.60;;;;;;5114792;28;20044;-76
2022/08/04 00:28:38;;;;;;;1.42;0.95;;;26.40;66.90;;;;;;5114681;28;20050;-75
2022/08/04 00:31:10;;;;;;;1.25;1.05;;;26.30;67.00;;;;;;5114735;28;20127;-75
2022/08/04 00:33:39;;;;;;;2.28;0.90;;;26.10;67.70;;;;;;5114442;28;20139;-76
2022/08/04 00:36:05;;;;;;;2.35;1.05;;;26.00;67.80;;;;;;5114609;28;20467;-76
2022/08/04 00:38:33;;;;;;;1.08;0.70;;;26.00;67.70;;;;;;5114357;28;20051;-76
2022/08/04 00:41:04;;;;;;;3.63;1.00;;;25.90;68.00;;;;;;5114402;28;20035;-78
2022/08/04 00:43:32;;;;;;;1.02;0.80;;;26.10;67.70;;;;;;5096189;28;20522;-78
2022/08/04 00:46:27;;;;;;;1.00;0.90;;;26.20;68.00;;;;;;5114320;28;20047;-77
2022/08/04 00:49:02;;;;;;;2.28;0.70;;;26.30;67.20;;;;;;5114187;28;20039;-79
2022/08/04 00:51:40;;;;;;;1.85;0.90;;;26.20;68.80;;;;;;5114247;28;20046;-76
2022/08/04 00:54:36;;;;;;;1.15;1.05;;;26.10;68.70;;;;;;5114126;28;20081;-79
2022/08/04 00:57:29;;;;;;;2.10;1.00;;;26.10;68.20;;;;;;5096127;28;20028;-78
2022/08/04 01:00:10;;;;;;;1.30;0.85;;;26.10;68.40;;;;;;5109236;28;20074;-77
2022/08/04 01:02:48;;;;;;;1.50;1.10;;;26.00;69.60;;;;;;5114416;28;20047;-76
2022/08/04 01:05:33;;;;;;;0.77;0.77;;;25.40;70.20;;;;;;5096027;28;20043;-77
2022/08/04 01:08:34;;;;;;;0.90;0.77;;;25.00;70.70;;;;;;5113928;28;20036;-76
2022/08/04 01:11:12;;;;;;;0.70;0.70;;;25.00;70.70;;;;;;5095108;28;20043;-75
2022/08/04 01:13:50;;;;;;;1.33;0.82;;;25.00;70.40;;;;;;5095344;28;20043;-77
2022/08/04 01:16:18;;;;;;;1.00;0.90;;;25.00;70.30;;;;;;5113655;28;20418;-77
2022/08/04 01:19:04;;;;;;;3.38;1.02;;;25.00;70.30;;;;;;5095374;28;20491;-75
2022/08/04 01:21:54;;;;;;;1.58;0.93;;;25.00;70.30;;;;;;5095713;28;20047;-75
2022/08/04 01:24:29;;;;;;;1.50;0.82;;;25.10;70.10;;;;;;5113229;28;20130;-76
2022/08/04 01:27:31;;;;;;;1.50;0.98;;;25.20;70.00;;;;;;5113785;28;20111;-76
2022/08/04 01:29:58;;;;;;;3.35;1.00;;;25.30;69.90;;;;;;5074186;28;20055;-75
2022/08/04 01:32:31;;;;;;;1.13;1.02;;;25.40;69.80;;;;;;5113760;28;20131;-77
2022/08/04 01:35:06;;;;;;;1.80;1.00;;;25.40;70.40;;;;;;5113383;28;20035;-76
2022/08/04 01:37:54;;;;;;;3.35;1.23;;;25.50;70.70;;;;;;5113562;28;20051;-77
2022/08/04 01:40:20;;;;;;;2.78;1.17;;;25.50;70.40;;;;;;5113405;28;20062;-78
2022/08/04 01:42:51;;;;;;;1.40;1.20;;;25.40;70.60;;;;;;5113360;28;20109;-77
2022/08/04 01:45:16;;;;;;;;;;;25.30;71.10;;;;;;5095854;28;20035;-74
2022/08/04 01:47:51;;;;;;;3.83;1.10;;;25.30;71.30;;;;;;5113445;28;19918;-77
2022/08/04 01:50:16;;;;;;;3.05;1.27;;;24.90;72.10;;;;;;5113463;28;20100;-76
2022/08/04 01:52:44;;;;;;;1.38;1.15;;;25.00;72.50;;;;;;5094946;28;20822;-77
2022/08/04 01:55:13;;;;;;;3.95;1.52;;;25.10;71.50;;;;;;5095484;28;20051;-75
2022/08/04 01:57:44;;;;;;;1.92;1.25;;;25.00;72.10;;;;;;5113375;28;20047;-74
2022/08/04 02:00:13;;;;;;;1.63;1.20;;;25.00;72.30;;;;;;5113234;28;20078;-75
2022/08/04 02:02:39;;;;;;;2.55;1.20;;;25.00;72.10;;;;;;5095357;28;20075;-74
2022/08/04 02:05:08;;;;;;;1.65;1.50;;;24.80;72.80;;;;;;5095003;28;20043;-77
2022/08/04 02:08:00;;;;;;;1.45;1.02;;;24.80;73.00;;;;;;5113226;28;20047;-75
2022/08/04 02:10:40;;;;;;;1.20;1.10;;;24.50;73.90;;;;;;5088925;28;20040;-77
2022/08/04 02:13:30;;;;;;;2.58;1.17;;;24.50;73.90;;;;;;5092723;28;20054;-74
2022/08/04 02:16:44;;;;;;;2.10;1.30;;;24.60;73.70;;;;;;5074796;28;20491;-77
2022/08/04 02:19:41;;;;;;;1.38;1.02;;;24.50;74.00;;;;;;5091481;28;20067;-76
2022/08/04 02:22:08;;;;;;;1.50;1.35;;;24.40;74.50;;;;;;5074692;28;20044;-75
2022/08/04 02:24:42;;;;;;;2.58;1.42;;;24.00;75.60;;;;;;5074542;28;20028;-75
2022/08/04 02:27:10;;;;;;;2.33;1.40;;;23.80;76.10;;;;;;5091659;28;20040;-77
2022/08/04 02:29:58;;;;;;;1.35;1.00;;;23.70;76.20;;;;;;5093141;28;20115;-75
2022/08/04 02:32:32;;;;;;;2.95;1.40;;;23.80;76.10;;;;;;5092493;28;20066;-77
2022/08/04 02:35:06;;;;;;;1.75;1.50;;;23.70;76.20;;;;;;5108365;28;20459;-77
2022/08/04 02:37:33;;;;;;;1.92;1.40;;;23.60;76.50;;;;;;5117099;28;20130;-75
2022/08/04 02:40:01;;;;;;;2.08;1.60;;;23.70;76.50;;;;;;5098540;28;20123;-75
2022/08/04 02:42:28;;;;;;;0.95;0.90;;;23.50;76.30;;;;;;5116592;28;20059;-75
2022/08/04 02:44:57;;;;;;;2.00;1.30;;;23.60;76.20;;;;;;5116294;28;20421;-77
2022/08/04 02:47:25;;;;;;;1.57;1.10;;;23.60;76.00;;;;;;5098344;28;20039;-76
2022/08/04 02:49:51;;;;;;;4.10;1.10;;;23.50;76.20;;;;;;5098315;28;20890;-77
2022/08/04 02:52:20;;;;;;;1.10;1.00;;;23.40;76.50;;;;;;5116614;28;20047;-74
2022/08/04 02:54:53;;;;;;;1.73;1.20;;;23.30;76.90;;;;;;5116614;28;20078;-75
2022/08/04 02:57:23;;;;;;;4.38;1.23;;;23.20;77.50;;;;;;5098164;28;20677;-76
2022/08/04 03:00:13;;;;;;;4.25;0.90;;;23.10;77.50;;;;;;5116204;28;20384;-75
2022/08/04 03:02:49;;;;;;;2.55;1.40;;;23.10;77.40;;;;;;5097851;28;20042;-76
2022/08/04 03:05:24;;;;;;;4.75;1.35;;;23.20;77.30;;;;;;5097784;28;20043;-75
2022/08/04 03:07:58;;;;;;;2.58;1.30;;;23.30;77.20;;;;;;5113040;28;20379;-76
2022/08/04 03:10:55;;;;;;;2.90;1.20;;;23.30;77.10;;;;;;5114584;28;20042;-77
2022/08/04 03:13:36;;;;;;;1.67;1.20;;;23.30;77.40;;;;;;5115161;28;20051;-75
2022/08/04 03:16:37;;;;;;;1.92;0.98;;;23.40;77.10;;;;;;5097650;28;20042;-75
2022/08/04 03:19:25;;;;;;;0.82;0.82;;;23.20;77.70;;;;;;5074277;28;20074;-76
2022/08/04 03:22:25;;;;;;;1.52;1.38;;;23.10;78.20;;;;;;5116152;28;20039;-76
2022/08/04 03:25:10;;;;;;;1.60;1.13;;;23.20;78.10;;;;;;5116004;28;20031;-74
2022/08/04 03:28:17;;;;;;;2.10;1.25;;;23.40;77.80;;;;;;5115591;28;20502;-75
2022/08/04 03:30:52;;;;;;;1.35;1.05;;;23.30;77.70;;;;;;5097558;28;20123;-76
2022/08/04 03:33:36;;;;;;;2.30;1.20;;;23.10;78.20;;;;;;5115706;28;20051;-76
2022/08/04 03:36:39;;;;;;;1.38;1.27;;;23.20;78.30;;;;;;5097383;28;20100;-76
2022/08/04 03:39:26;;;;;;;2.50;1.30;;;23.10;78.70;;;;;;5097531;28;20189;-77
2022/08/04 03:42:28;;;;;;;2.00;1.38;;;23.00;78.70;;;;;;5115688;28;20130;-76
2022/08/04 03:45:20;;;;;;;1.70;1.20;;;23.00;78.70;;;;;;5097482;28;20587;-75
2022/08/04 03:48:27;;;;;;;1.80;1.10;;;23.10;79.00;;;;;;5090708;28;20042;-77
2022/08/04 03:54:37;;;;;;;1.40;1.30;;;22.80;79.60;;;;;;5115297;28;20088;-77
2022/08/04 03:57:30;;;;;;;4.18;1.17;;;22.80;79.50;;;;;;5115440;28;20398;-77
2022/08/04 03:59:59;;;;;;;5.88;1.25;;;22.70;79.30;;;;;;5096931;28;20039;-77
2022/08/04 04:02:37;;;;;;;2.58;1.40;;;22.80;79.10;;;;;;5115205;28;20038;-75
2022/08/04 04:05:36;;;;;;;2.20;1.30;;;22.80;79.00;;;;;;5115158;28;20039;-75
2022/08/04 04:08:40;;;;;;;1.77;1.25;;;22.90;78.80;;;;;;5114847;28;20039;-75
2022/08/04 04:11:08;;;;;;;3.42;1.17;;;22.90;78.80;;;;;;5114772;28;20041;-77
2022/08/04 04:13:43;;;;;;;1.83;1.52;;;22.90;78.50;;;;;;5096657;28;20040;-77
2022/08/04 04:16:36;;;;;;;2.42;1.38;;;22.90;78.70;;;;;;5114718;28;20127;-75
2022/08/04 04:19:08;;;;;;;3.03;1.10;;;22.80;78.90;;;;;;5114878;28;20430;-77
2022/08/04 04:22:07;;;;;;;2.72;1.45;;;22.80;78.90;;;;;;5114889;28;20645;-76
2022/08/04 04:25:11;;;;;;;1.98;1.20;;;22.80;79.00;;;;;;5114984;28;20032;-76
2022/08/04 04:28:14;;;;;;;2.60;1.33;;;22.80;79.20;;;;;;5096316;28;20054;-76
2022/08/04 04:31:07;;;;;;;1.60;1.20;;;22.80;79.50;;;;;;5114713;28;20035;-76
2022/08/04 04:33:58;;;;;;;5.10;1.67;;;22.40;80.70;;;;;;5085298;28;20085;-75
2022/08/04 04:36:45;;;;;;;2.17;1.38;;;22.20;81.60;;;;;;5114693;28;20051;-75
2022/08/04 04:39:32;;;;;;;1.83;1.48;;;22.10;81.90;;;;;;5114452;28;20038;-75
2022/08/04 04:42:15;;;;;;;1.77;1.42;;;22.10;82.00;;;;;;5114529;28;20043;-75
2022/08/04 04:44:58;;;;;;;4.03;1.40;;;22.10;82.20;;;;;;5096133;28;20032;-75
2022/08/04 04:47:44;;;;;;;5.63;2.22;;;22.10;82.10;;;;;;5116931;27;20118;-75
2022/08/04 04:50:28;;;;;;;3.55;1.50;;;22.30;81.50;;;;;;5114405;28;20039;-76
2022/08/04 04:53:17;;;;;;;1.83;1.42;;;22.40;81.20;;;;;;5075402;28;20135;-75
2022/08/04 04:55:54;;;;;;;2.72;1.70;;;22.50;81.00;;;;;;5106512;27;20055;-75
2022/08/04 04:58:22;;;;;;;2.38;1.42;;;22.50;81.20;;;;;;5114432;27;20077;-74
2022/08/04 05:00:54;;;;;;;1.52;1.33;;;22.40;81.60;;;;;;5105656;27;20131;-73
2022/08/04 05:03:46;;;;;;;2.03;1.70;;;22.40;81.60;;;;;;5129910;27;20039;-73
2022/08/04 05:06:42;;;;;;;5.60;1.60;;;22.40;81.60;;;;;;5093608;28;20039;-74
2022/08/04 05:09:29;;;;;;;1.50;1.30;;;22.40;81.80;;;;;;5093534;28;20036;-72
2022/08/04 05:12:19;;;;;;;17.02;10.27;;;22.30;82.30;;;;;;5092876;28;20047;-73
2022/08/04 05:14:48;;;;;;;4.22;2.33;;;22.30;82.40;;;;;;5093517;28;20047;-73
2022/08/04 05:17:29;;;;;;;2.90;1.50;;;22.40;82.20;;;;;;5093412;28;20040;-75
2022/08/04 05:19:59;;;;;;;2.60;2.05;;;22.40;81.90;;;;;;5074748;28;20059;-75
2022/08/04 05:22:47;;;;;;;2.90;1.52;;;22.50;82.00;;;;;;5074191;28;20135;-75
2022/08/04 05:25:25;;;;;;;3.83;1.33;;;22.50;82.10;;;;;;5074162;28;20032;-76
2022/08/04 05:28:02;;;;;;;2.00;1.63;;;22.50;82.10;;;;;;5092990;28;20055;-75
2022/08/04 05:30:33;;;;;;;1.60;1.30;;;22.70;81.80;;;;;;5093257;28;20477;-74
2022/08/04 05:33:08;;;;;;;1.95;1.30;;;22.70;82.20;;;;;;5093040;28;20088;-75
2022/08/04 05:35:41;;;;;;;2.22;1.77;;;22.70;81.90;;;;;;5093133;28;20502;-76
2022/08/04 05:38:10;;;;;;;1.98;1.58;;;22.80;81.60;;;;;;5112063;28;20138;-75
2022/08/04 05:40:38;;;;;;;1.85;1.48;;;23.00;81.00;;;;;;5095096;28;20027;-75
2022/08/04 05:43:05;;;;;;;2.10;1.45;;;23.20;80.10;;;;;;5113625;28;20126;-76
2022/08/04 05:45:33;;;;;;;1.83;1.50;;;23.50;80.60;;;;;;5113608;28;20043;-75
2022/08/04 05:48:02;;;;;;;1.60;1.40;;;23.90;79.40;;;;;;5113382;28;20204;-74
2022/08/04 05:50:30;;;;;;;2.63;1.67;;;24.10;78.20;;;;;;5095170;28;20039;-73
2022/08/04 05:52:58;;;;;;;2.63;1.80;;;24.50;77.80;;;;;;5094896;28;20449;-74
2022/08/04 05:55:24;;;;;;;2.03;1.35;;;24.60;78.20;;;;;;5113236;28;20497;-74
2022/08/04 05:57:51;;;;;;;4.63;1.58;;;25.00;78.80;;;;;;5095193;28;20027;-76
2022/08/04 06:00:18;;;;;;;2.50;1.20;;;25.20;77.00;;;;;;5113389;28;20036;-76
2022/08/04 06:02:48;;;;;;;3.25;1.48;;;25.30;76.20;;;;;;5095140;28;20119;-75
2022/08/04 06:05:17;;;;;;;2.58;1.73;;;25.40;75.90;;;;;;5113380;28;20044;-76
2022/08/04 06:07:44;;;;;;;2.83;1.50;;;25.70;76.30;;;;;;5113210;28;20046;-76
2022/08/04 06:10:10;;;;;;;1.00;0.90;;;25.90;75.80;;;;;;5113614;28;20028;-74
2022/08/04 06:12:43;;;;;;;7.20;1.73;;;26.20;76.10;;;;;;5117294;28;20062;-75
2022/08/04 06:15:12;;;;;;;2.17;1.63;;;26.60;76.50;;;;;;5117238;28;20039;-74
2022/08/04 06:17:47;;;;;;;4.65;1.45;;;26.70;76.50;;;;;;5117397;28;20036;-74
2022/08/04 06:20:14;;;;;;;6.43;1.50;;;26.80;75.70;;;;;;5117253;28;20506;-76
2022/08/04 06:22:43;;;;;;;3.08;1.65;;;27.10;75.20;;;;;;5117095;28;20375;-78
2022/08/04 06:25:14;;;;;;;9.95;1.40;;;27.40;74.30;;;;;;5098631;28;20038;-72
2022/08/04 06:27:42;;;;;;;1.60;1.15;;;27.50;77.60;;;;;;5117012;28;20380;-72
2022/08/04 06:30:13;;;;;;;2.00;1.70;;;27.50;76.90;;;;;;5117016;28;20040;-72
2022/08/04 06:35:35;;;;;;;4.10;1.52;;;27.80;76.50;;;;;;5100222;28;20036;-72
2022/08/04 06:38:02;;;;;;;1.73;1.27;;;28.00;74.70;;;;;;5098580;28;20044;-72
2022/08/04 06:40:28;;;;;;;5.90;1.55;;;28.20;74.90;;;;;;5116884;28;20650;-74
2022/08/04 06:42:55;;;;;;;2.10;1.55;;;28.40;73.90;;;;;;5116761;28;20027;-72
2022/08/04 06:45:21;;;;;;;5.00;1.73;;;28.70;72.30;;;;;;5116785;28;20042;-72
2022/08/04 06:47:52;;;;;;;1.92;1.20;;;28.90;72.50;;;;;;5117052;28;20059;-73
2022/08/04 06:50:19;;;;;;;5.43;1.40;;;29.20;72.80;;;;;;5116777;28;20060;-73
2022/08/04 06:52:45;;;;;;;2.13;1.17;;;29.40;71.50;;;;;;5116404;28;20131;-75
2022/08/04 06:55:12;;;;;;;3.65;1.35;;;29.50;72.20;;;;;;5116522;28;20034;-72
2022/08/04 06:57:41;;;;;;;6.35;1.60;;;29.40;72.60;;;;;;5097872;28;20502;-73
2022/08/04 07:00:10;;;;;;;2.28;1.33;;;29.40;72.70;;;;;;5091105;28;20043;-72
2022/08/04 07:02:51;;;;;;;3.90;2.15;;;29.50;73.00;;;;;;5096479;28;20043;-73
2022/08/04 07:05:19;;;;;;;4.10;1.75;;;28.90;72.20;;;;;;5098054;28;20032;-73
2022/08/04 07:07:45;;;;;;;1.65;1.40;;;29.30;69.80;;;;;;5097793;28;20048;-74
2022/08/04 07:10:11;;;;;;;2.35;1.40;;;29.40;67.30;;;;;;5116035;28;20040;-72
2022/08/04 07:12:38;;;;;;;1.30;1.10;;;29.60;69.00;;;;;;5090835;28;20052;-73
2022/08/04 07:15:06;;;;;;;2.10;1.50;;;29.90;70.30;;;;;;5077442;28;20046;-73
2022/08/04 07:17:34;;;;;;;4.65;1.30;;;;;;;;;;5105354;28;20042;-73
2022/08/04 07:20:01;;;;;;;2.03;1.35;;;30.40;70.70;;;;;;5097864;28;20039;-74
2022/08/04 07:22:28;;;;;;;2.00;1.60;;;30.60;69.60;;;;;;5096499;28;20038;-76
2022/08/04 07:24:55;;;;;;;3.97;1.55;;;30.60;69.30;;;;;;5097591;28;20118;-74
2022/08/04 07:27:22;;;;;;;2.15;1.80;;;30.60;68.50;;;;;;5097531;28;20127;-74
2022/08/04 07:29:48;;;;;;;3.70;1.60;;;30.70;67.30;;;;;;5115874;28;20035;-74
2022/08/04 07:32:15;;;;;;;2.70;1.48;;;31.00;67.60;;;;;;5115810;28;20080;-74
2022/08/04 07:34:42;;;;;;;1.70;1.50;;;31.30;66.50;;;;;;5097552;28;20031;-76
2022/08/04 07:37:08;;;;;;;5.45;1.60;;;31.30;66.00;;;;;;5115842;28;20098;-74
2022/08/04 07:39:35;;;;;;;1.77;1.52;;;30.90;64.20;;;;;;5115750;28;20069;-75
2022/08/04 07:42:03;;;;;;;2.40;2.13;;;30.90;65.60;;;;;;5097503;28;20333;-74
2022/08/04 07:44:31;;;;;;;1.83;1.50;;;30.90;65.90;;;;;;5114650;28;20054;-76
2022/08/04 07:46:58;;;;;;;3.17;1.50;;;30.90;64.60;;;;;;5115409;28;20028;-74
2022/08/04 07:49:25;;;;;;;1.60;1.50;;;31.10;64.40;;;;;;5097239;28;20047;-74
2022/08/04 07:51:52;;;;;;;3.13;1.40;;;31.40;65.30;;;;;;5097087;28;20383;-74
2022/08/04 07:54:19;;;;;;;2.75;1.85;;;31.30;64.60;;;;;;5097159;28;20031;-73
2022/08/04 07:56:48;;;;;;;1.90;1.65;;;31.30;65.00;;;;;;5097158;28;20124;-77
2022/08/04 07:59:15;;;;;;;2.10;1.30;;;31.60;64.50;;;;;;5115541;28;20044;-77
2022/08/04 08:01:41;;;;;;;5.22;1.60;;;31.90;65.40;;;;;;5096868;28;20034;-75
2022/08/04 08:04:09;;;;;;;1.88;1.60;;;32.10;65.60;;;;;;5115264;28;20039;-76
2022/08/04 08:06:41;;;;;;;1.50;1.13;;;32.30;64.30;;;;;;5115217;28;20071;-77
2022/08/04 08:09:12;;;;;;;1.55;1.45;;;32.30;63.90;;;;;;5115007;28;20122;-77
2022/08/04 08:11:38;;;;;;;4.88;1.60;;;32.40;64.10;;;;;;5115056;28;20040;-75
2022/08/04 08:14:07;;;;;;;1.42;1.27;;;32.60;63.40;;;;;;5114917;28;20043;-77
2022/08/04 08:16:34;;;;;;;1.73;1.50;;;32.60;64.30;;;;;;5115034;28;20506;-75
2022/08/04 08:19:00;;;;;;;1.63;1.40;;;33.10;63.00;;;;;;5114911;28;20066;-74
2022/08/04 08:21:26;;;;;;;5.82;2.28;;;32.80;62.40;;;;;;5114769;28;20035;-74
2022/08/04 08:23:52;;;;;;;2.22;1.45;;;32.70;62.00;;;;;;5114805;28;20043;-76
2022/08/04 08:26:18;;;;;;;1.50;1.40;;;32.90;61.50;;;;;;5114569;28;20036;-74
2022/08/04 08:28:44;;;;;;;1.88;1.67;;;33.10;62.10;;;;;;5114791;28;20050;-73
2022/08/04 08:31:10;;;;;;;2.17;1.88;;;33.20;62.00;;;;;;5114759;28;20035;-74
2022/08/04 08:33:36;;;;;;;1.50;1.40;;;33.50;62.40;;;;;;5114374;28;20074;-73
2022/08/04 08:36:11;;;;;;;1.90;1.50;;;33.30;62.00;;;;;;5096319;28;20028;-75
2022/08/04 08:38:43;;;;;;;2.33;1.70;;;33.60;62.60;;;;;;5114600;28;20571;-74
2022/08/04 08:41:34;;;;;;;3.38;1.63;;;33.70;61.00;;;;;;5114479;28;20032;-76
2022/08/04 08:44:37;;;;;;;1.63;1.52;;;33.40;61.60;;;;;;5114396;28;20118;-73
2022/08/04 08:47:20;;;;;;;2.42;1.90;;;33.40;61.50;;;;;;5114413;28;20031;-74
2022/08/04 08:50:19;;;;;;;3.80;1.83;;;33.70;61.30;;;;;;5114783;28;20122;-76
2022/08/04 08:53:07;;;;;;;2.60;1.60;;;33.60;60.40;;;;;;5095922;28;20054;-74
2022/08/04 08:55:51;;;;;;;2.05;1.60;;;33.10;60.10;;;;;;5095898;28;20402;-74
2022/08/04 08:58:47;;;;;;;3.97;1.77;;;33.10;61.20;;;;;;5096154;28;20035;-76
2022/08/04 09:01:50;;;;;;;3.33;1.45;;;33.40;59.30;;;;;;5114077;28;20059;-74
2022/08/04 09:04:34;;;;;;;2.33;1.67;;;33.70;59.10;;;;;;5113999;28;20035;-74
2022/08/04 09:07:10;;;;;;;3.15;1.77;;;33.70;60.00;;;;;;5095550;28;20061;-74
2022/08/04 09:10:11;;;;;;;2.78;1.50;;;34.20;60.50;;;;;;5113989;28;20079;-74
2022/08/04 09:12:55;;;;;;;2.42;1.77;;;33.80;60.00;;;;;;5108634;28;20497;-74
2022/08/04 09:15:40;;;;;;;2.22;2.00;;;34.00;58.10;;;;;;5113779;28;20398;-73
2022/08/04 09:18:22;;;;;;;1.70;1.40;;;33.60;58.80;;;;;;5113780;28;20047;-75
2022/08/04 09:20:52;;;;;;;1.50;1.35;;;34.10;58.20;;;;;;5113575;28;20044;-73
2022/08/04 09:23:18;;;;;;;2.13;1.80;;;34.10;57.80;;;;;;5113399;28;20069;-75
2022/08/04 09:26:10;;;;;;;1.60;1.50;;;34.30;58.40;;;;;;5113393;28;20033;-73
2022/08/04 09:28:46;;;;;;;4.00;1.50;;;34.20;57.80;;;;;;5066258;28;20040;-76
2022/08/04 09:31:14;;;;;;;2.90;1.60;;;;;;;;;;5113530;28;20054;-73
2022/08/04 09:34:09;;;;;;;2.72;1.45;;;34.80;58.00;;;;;;5095231;28;20051;-74
2022/08/04 09:36:38;;;;;;;1.70;1.40;;;34.80;57.50;;;;;;5113014;28;20028;-73
2022/08/04 09:39:03;;;;;;;9.50;1.60;;;34.60;58.10;;;;;;5113683;28;20039;-73
2022/08/04 09:41:50;;;;;;;2.10;1.40;;;34.70;57.80;;;;;;5113518;28;20038;-73
2022/08/04 09:44:28;;;;;;;4.00;1.48;;;34.80;58.00;;;;;;5112015;28;20498;-75
2022/08/04 09:47:19;;;;;;;1.95;1.75;;;35.00;57.80;;;;;;5113049;28;20043;-75
2022/08/04 09:50:08;;;;;;;4.90;1.70;;;34.60;57.70;;;;;;5113728;28;20505;-74
2022/08/04 09:53:31;;;;;;;4.43;1.80;;;34.90;57.30;;;;;;5113256;28;20051;-74
2022/08/04 09:56:08;;;;;;;2.33;1.30;;;35.30;57.20;;;;;;5069287;28;20135;-74
2022/08/04 09:58:49;;;;;;;7.93;1.80;;;34.90;57.60;;;;;;5067946;28;20576;-75
2022/08/04 10:01:21;;;;;;;6.32;1.55;;;35.10;56.40;;;;;;5101049;28;20494;-76
2022/08/04 10:04:08;;;;;;;1.75;1.40;;;34.20;56.40;;;;;;5112431;28;20063;-75
2022/08/04 10:06:46;;;;;;;2.67;1.35;;;34.60;57.20;;;;;;5111318;28;20054;-75
2022/08/04 10:09:49;;;;;;;2.58;1.50;;;35.10;57.40;;;;;;5111012;28;20044;-77
2022/08/04 10:12:21;;;;;;;9.63;1.70;;;35.00;56.40;;;;;;5111262;28;20104;-75
2022/08/04 10:15:14;;;;;;;2.22;1.80;;;35.20;56.10;;;;;;5110815;28;20031;-76
2022/08/04 10:18:03;;;;;;;2.03;1.42;;;35.30;55.80;;;;;;5111483;28;20051;-75
2022/08/04 10:20:49;;;;;;;1.25;1.15;;;35.10;56.00;;;;;;5111566;28;20050;-75
2022/08/04 10:23:33;;;;;;;2.60;1.30;;;35.10;56.10;;;;;;5110154;28;20386;-76
2022/08/04 10:26:14;;;;;;;1.35;1.25;;;35.40;56.40;;;;;;5110721;28;20487;-75
2022/08/04 10:29:03;;;;;;;2.22;1.35;;;35.40;56.50;;;;;;5112183;28;20046;-75
2022/08/04 10:31:58;;;;;;;3.30;1.50;;;35.00;56.40;;;;;;5112556;28;20040;-75
2022/08/04 10:34:30;;;;;;;3.60;1.38;;;35.30;56.20;;;;;;5089377;28;20137;-75
2022/08/04 10:37:20;;;;;;;3.45;1.58;;;35.40;56.30;;;;;;5110727;28;20115;-75
2022/08/04 10:42:45;;;;;;;2.38;1.45;;;35.40;55.50;;;;;;5110822;28;19933;-74
2022/08/04 10:45:22;;;;;;;3.00;1.60;;;35.40;56.20;;;;;;5111703;28;20101;-74
2022/08/04 10:48:30;;;;;;;2.90;1.30;;;35.60;56.00;;;;;;5111686;28;20044;-74
2022/08/04 10:51:04;;;;;;;2.08;1.38;;;35.40;55.40;;;;;;5102830;28;20054;-74
2022/08/04 10:53:33;;;;;;;1.60;1.45;;;35.10;55.90;;;;;;5110495;28;20060;-74
2022/08/04 10:56:22;;;;;;;2.40;1.67;;;35.40;55.60;;;;;;5110655;28;20391;-74
2022/08/04 10:58:55;;;;;;;1.40;1.30;;;35.70;55.50;;;;;;5113322;28;20047;-74
2022/08/04 11:01:43;;;;;;;1.13;1.02;;;35.30;55.20;;;;;;5114832;28;20078;-75
2022/08/04 11:04:24;;;;;;;2.20;1.60;;;35.40;55.50;;;;;;5114495;28;20080;-74
2022/08/04 11:06:51;;;;;;;1.85;1.40;;;35.50;55.40;;;;;;5112836;28;20055;-74
2022/08/04 11:09:19;;;;;;;2.85;1.40;;;35.40;55.10;;;;;;5113775;28;20533;-74
2022/08/04 11:11:52;;;;;;;1.30;1.13;;;35.60;55.00;;;;;;5114404;28;20389;-74
2022/08/04 11:14:26;;;;;;;1.27;1.13;;;35.30;54.10;;;;;;5114930;28;20054;-74
2022/08/04 11:17:05;;;;;;;1.58;1.23;;;35.40;55.20;;;;;;5113932;28;20050;-75
2022/08/04 11:19:34;;;;;;;3.58;1.33;;;35.50;55.00;;;;;;5115623;28;20489;-75
2022/08/04 11:22:13;;;;;;;1.30;1.20;;;35.60;54.70;;;;;;5113548;28;20036;-74
2022/08/04 11:24:49;;;;;;;1.85;1.40;;;35.50;54.00;;;;;;5095390;28;20035;-74
2022/08/04 11:27:27;;;;;;;1.88;1.58;;;35.60;53.80;;;;;;5113746;28;20054;-74
2022/08/04 11:30:06;;;;;;;1.20;1.05;;;35.50;53.90;;;;;;5113442;28;20087;-75
2022/08/04 11:32:38;;;;;;;2.30;1.37;;;36.10;54.50;;;;;;5096108;28;20052;-75
2022/08/04 11:35:12;;;;;;;2.35;1.30;;;35.60;53.10;;;;;;5115188;28;20088;-76
2022/08/04 11:38:32;;;;;;;3.47;1.38;;;35.60;54.00;;;;;;5099388;28;20043;-74
2022/08/04 11:41:04;;;;;;;1.80;1.30;;;35.70;53.60;;;;;;5051442;28;20049;-74
2022/08/04 11:44:08;;;;;;;1.15;1.05;;;35.40;53.20;;;;;;5050493;28;20044;-74
2022/08/04 11:46:49;;;;;;;1.83;1.48;;;35.40;54.80;;;;;;5096663;28;21165;-76
2022/08/04 11:49:59;;;;;;;1.80;1.48;;;35.90;54.60;;;;;;5113167;28;20069;-75
2022/08/04 11:52:27;;;;;;;1.83;1.30;;;36.10;55.40;;;;;;5110054;28;20051;-75
2022/08/04 11:54:54;;;;;;;1.50;1.27;;;36.00;53.80;;;;;;5096569;28;20055;-73
2022/08/04 11:57:21;;;;;;;3.17;1.35;;;35.80;53.20;;;;;;5113310;28;20043;-74
2022/08/04 11:59:48;;;;;;;1.27;0.90;;;36.10;53.50;;;;;;5113286;28;20100;-73
2022/08/04 12:02:44;;;;;;;1.10;1.00;;;36.00;53.00;;;;;;5113186;28;20039;-75
2022/08/04 12:05:10;;;;;;;1.95;1.42;;;36.10;53.10;;;;;;5112819;28;20057;-75
2022/08/04 12:07:42;;;;;;;1.67;1.20;;;36.30;53.80;;;;;;5113383;28;20023;-75
2022/08/04 12:10:18;;;;;;;1.30;1.20;;;36.30;53.10;;;;;;5096693;28;20117;-75
2022/08/04 12:13:09;;;;;;;1.88;1.42;;;36.40;52.50;;;;;;5114718;28;20051;-74
2022/08/04 12:15:46;;;;;;;1.98;1.65;;;36.50;52.60;;;;;;5114761;28;20042;-74
2022/08/04 12:18:23;;;;;;;4.28;1.42;;;36.20;52.50;;;;;;5115157;28;20074;-74
2022/08/04 12:21:04;;;;;;;2.35;1.20;;;36.20;52.60;;;;;;5115011;28;20086;-75
2022/08/04 12:23:36;;;;;;;2.30;1.30;;;36.10;52.70;;;;;;5114441;28;20043;-75
2022/08/04 12:26:07;;;;;;;1.67;1.27;;;36.10;52.60;;;;;;5095122;28;20040;-75
2022/08/04 12:28:37;;;;;;;6.50;2.10;;;36.50;52.60;;;;;;5114802;28;20066;-74
2022/08/04 12:31:26;;;;;;;1.38;1.20;;;36.50;51.30;;;;;;5096667;28;20410;-75
2022/08/04 12:34:05;;;;;;;2.90;1.42;;;36.30;51.60;;;;;;5096357;28;20105;-75
2022/08/04 12:36:54;;;;;;;2.00;1.20;;;36.30;50.80;;;;;;5114685;28;20036;-76
2022/08/04 12:39:21;;;;;;;2.13;1.40;;;36.70;52.30;;;;;;5114638;28;20047;-76
2022/08/04 12:42:06;;;;;;;1.27;1.17;;;;;;;;;;5096251;28;20067;-75
2022/08/04 12:44:34;;;;;;;2.28;1.60;;;;;;;;;;5114306;28;20047;-74
2022/08/04 12:47:02;;;;;;;1.33;1.23;;;;;;;;;;5095805;28;20042;-74
2022/08/04 12:49:29;;;;;;;1.42;1.25;;;;;;;;;;5096023;28;20043;-74
2022/08/04 12:51:56;;;;;;;1.92;1.38;;;;;;;;;;5095988;28;20518;-73
2022/08/04 12:54:25;;;;;;;1.70;1.13;;;;;;;;;;5114331;28;20055;-75
2022/08/04 12:56:51;;;;;;;;;;;;;;;;;;5096423;28;20127;-74
2022/08/04 12:59:19;;;;;;;1.27;1.17;;;;;;;;;;5114281;28;19962;-74
2022/08/04 13:01:48;;;;;;;1.33;1.23;;;;;;;;;;5096011;28;20089;-73
2022/08/04 13:04:14;;;;;;;;;;;;;;;;;;5096376;28;20084;-74
2022/08/04 13:06:42;;;;;;;5.40;1.30;;;35.60;78.00;;;;;;5114329;28;19978;-75
2022/08/04 13:09:13;;;;;;;1.45;1.20;;;36.40;75.10;;;;;;5095863;28;20062;-74
2022/08/04 13:11:45;;;;;;;2.03;1.52;;;36.50;73.90;;;;;;5114041;28;20442;-75
2022/08/04 13:14:12;;;;;;;3.47;1.38;;;36.80;50.60;;;;;;5113987;28;20047;-75
2022/08/04 13:16:38;;;;;;;1.10;1.00;;;36.50;50.70;;;;;;5113192;28;20032;-73
2022/08/04 13:19:07;;;;;;;1.33;1.00;;;36.50;51.90;;;;;;5110195;28;20039;-73
2022/08/04 13:21:34;;;;;;;2.17;1.33;;;36.50;50.90;;;;;;5103632;28;20043;-74
2022/08/04 13:24:10;;;;;;;1.23;1.13;;;36.60;50.40;;;;;;5113900;28;20544;-74
2022/08/04 13:26:37;;;;;;;1.65;1.15;;;36.40;50.50;;;;;;5113782;28;20599;-73
2022/08/04 13:29:08;;;;;;;1.77;1.33;;;36.30;50.30;;;;;;5113648;28;20036;-72
2022/08/04 13:31:36;;;;;;;1.52;1.10;;;36.30;49.30;;;;;;5113646;28;20035;-73
2022/08/04 13:34:06;;;;;;;1.75;1.30;;;35.90;49.80;;;;;;5095644;28;20062;-73
2022/08/04 13:36:34;;;;;;;3.38;1.50;;;36.00;49.80;;;;;;5095349;28;20134;-73
2022/08/04 13:39:07;;;;;;;1.10;1.00;;;36.40;50.10;;;;;;5095341;28;20430;-73
2022/08/04 13:41:36;;;;;;;2.65;1.33;;;36.50;49.90;;;;;;5095496;28;20031;-73
2022/08/04 13:44:08;;;;;;;1.38;1.25;;;36.30;49.20;;;;;;5111875;28;20585;-74
2022/08/04 13:46:58;;;;;;;1.73;1.00;;;36.50;49.60;;;;;;5101257;28;20038;-73
2022/08/04 13:49:24;;;;;;;1.58;1.20;;;36.50;50.20;;;;;;5112886;28;20050;-74